Time;durP1;ratioP1;P1;durP2;ratioP2;P2;SDS_P1;SDS_P2;PMS_P1;PMS_P2;Temp;Humidity;BMP_temperature;BMP_pressure;BME280_temperature;BME280_humidity;BME280_pressure;Samples;Min_cycle;Max_cycle;Signal;HPM_P1;HPM_P2
2022/08/30 00:01:31;;;;;;;7.43;6.63;;;;;;;15.58;80.90;101506.44;7397075;19;20018;-67
2022/08/30 00:04:09;;;;;;;11.38;7.50;;;;;;;15.59;81.23;101517.88;7396404;19;20011;-68
2022/08/30 00:06:37;;;;;;;8.57;7.25;;;;;;;15.57;81.16;101512.63;7399469;19;20023;-67
2022/08/30 00:09:06;;;;;;;7.93;6.72;;;;;;;15.56;81.04;101515.34;7399252;19;20039;-67
2022/08/30 00:11:34;;;;;;;8.23;6.95;;;;;;;15.56;81.26;101524.13;7399094;19;20038;-67
2022/08/30 00:14:03;;;;;;;7.20;6.50;;;;;;;15.56;81.27;101531.19;7397433;19;20534;-67
2022/08/30 00:16:31;;;;;;;9.07;7.28;;;;;;;15.56;81.17;101525.91;7396569;19;20018;-67
2022/08/30 00:19:01;;;;;;;9.93;7.15;;;;;;;15.54;81.28;101530.38;7398768;19;20018;-67
2022/08/30 00:21:32;;;;;;;8.85;6.38;;;;;;;15.54;81.39;101522.44;7398425;19;20544;-68
2022/08/30 00:24:00;;;;;;;8.18;7.03;;;;;;;15.54;81.47;101518.00;7397295;19;20386;-67
2022/08/30 00:26:29;;;;;;;8.93;6.85;;;;;;;15.55;81.33;101527.66;7396214;19;20022;-67
2022/08/30 00:28:57;;;;;;;7.00;6.15;;;;;;;15.57;81.44;101527.63;7395928;19;20657;-67
2022/08/30 00:31:26;;;;;;;7.55;6.63;;;;;;;15.57;81.44;101514.41;7398547;19;20026;-67
2022/08/30 00:33:54;;;;;;;7.93;6.45;;;;;;;15.56;81.54;101510.03;7397283;19;20037;-67
2022/08/30 00:36:23;;;;;;;7.70;6.68;;;;;;;15.57;81.35;101517.91;7398400;19;20010;-67
2022/08/30 00:38:54;;;;;;;7.18;6.47;;;;;;;15.58;81.45;101518.78;7396074;19;20027;-67
2022/08/30 00:41:22;;;;;;;7.70;6.50;;;;;;;15.58;81.60;101521.41;7397089;19;20023;-67
2022/08/30 00:43:51;;;;;;;9.27;6.22;;;;;;;15.54;81.68;101523.28;7396968;19;20015;-67
2022/08/30 00:46:19;;;;;;;7.95;6.50;;;;;;;15.56;81.79;101525.91;7396138;19;20442;-67
2022/08/30 00:48:51;;;;;;;8.38;5.95;;;;;;;15.56;81.79;101531.19;7397888;19;20029;-67
2022/08/30 00:51:21;;;;;;;7.28;5.97;;;;;;;15.55;81.66;101532.09;7396079;19;20019;-67
2022/08/30 00:53:55;;;;;;;7.28;5.72;;;;;;;15.55;81.83;101526.81;7396983;19;20021;-67
2022/08/30 00:56:26;;;;;;;6.45;5.22;;;;;;;15.55;81.80;101526.81;7398209;19;20021;-67
2022/08/30 00:58:59;;;;;;;8.55;6.15;;;;;;;15.57;81.92;101519.69;7396123;19;20023;-67
2022/08/30 01:01:28;;;;;;;7.45;6.00;;;;;;;15.57;81.86;101527.63;7397195;19;20015;-67
2022/08/30 01:03:57;;;;;;;6.28;5.68;;;;;;;15.58;82.01;101526.72;7396074;19;20014;-67
2022/08/30 01:06:26;;;;;;;7.07;5.78;;;;;;;15.58;82.17;101529.34;7395656;19;20019;-67
2022/08/30 01:08:58;;;;;;;6.53;5.82;;;;;;;15.57;82.12;101528.50;7396805;19;20017;-67
2022/08/30 01:11:27;;;;;;;6.93;5.68;;;;;;;15.57;82.34;101527.63;7397302;19;20011;-67
2022/08/30 01:13:56;;;;;;;6.70;6.10;;;;;;;15.55;82.75;101532.09;7396537;19;20477;-67
2022/08/30 01:16:26;;;;;;;9.70;6.03;;;;;;;15.53;82.55;101537.44;7396975;19;20014;-67
2022/08/30 01:18:59;;;;;;;6.78;6.07;;;;;;;15.49;82.55;101541.06;7396882;19;20018;-66
2022/08/30 01:21:35;;;;;;;6.80;5.55;;;;;;;15.44;83.02;101533.28;7395349;19;20022;-66
2022/08/30 01:24:08;;;;;;;9.52;6.13;;;;;;;15.41;83.26;101535.16;7395993;19;20039;-66
2022/08/30 01:26:38;;;;;;;6.72;6.10;;;;;;;15.36;83.25;101535.28;7394702;19;20019;-67
2022/08/30 01:29:10;;;;;;;7.05;5.93;;;;;;;15.35;83.05;101530.06;7396874;19;20018;-67
2022/08/30 01:32:01;;;;;;;8.43;5.85;;;;;;;15.32;83.31;101533.66;7396913;19;20021;-67
2022/08/30 01:34:30;;;;;;;7.07;6.18;;;;;;;15.29;83.22;101526.69;7394602;19;20014;-66
2022/08/30 01:36:58;;;;;;;6.50;5.90;;;;;;;15.28;83.37;101534.66;7395853;19;20022;-67
2022/08/30 01:39:30;;;;;;;6.32;5.72;;;;;;;15.25;83.41;101535.63;7396370;19;20134;-67
2022/08/30 01:42:12;;;;;;;7.10;6.18;;;;;;;15.25;83.47;101526.81;7393849;19;20006;-67
2022/08/30 01:44:41;;;;;;;6.82;6.13;;;;;;;15.23;83.39;101523.34;7394710;19;20101;-67
2022/08/30 01:47:09;;;;;;;6.30;5.70;;;;;;;15.23;83.79;101524.22;7395513;19;20010;-67
2022/08/30 01:49:39;;;;;;;7.00;5.95;;;;;;;15.24;83.67;101533.00;7395837;19;20022;-67
2022/08/30 01:52:08;;;;;;;7.97;6.32;;;;;;;15.22;83.64;101526.91;7395806;19;20022;-67
2022/08/30 01:54:41;;;;;;;8.80;6.45;;;;;;;15.19;83.55;101527.84;7394435;19;20018;-67
2022/08/30 01:57:12;;;;;;;7.57;6.53;;;;;;;15.16;84.09;101525.28;7396130;19;20015;-67
2022/08/30 01:59:46;;;;;;;7.97;6.22;;;;;;;15.11;83.80;101519.25;7395900;19;20014;-67
2022/08/30 02:02:16;;;;;;;9.57;6.53;;;;;;;15.06;84.07;101519.38;7395720;19;20014;-66
2022/08/30 02:04:45;;;;;;;6.97;6.22;;;;;;;15.06;84.28;101523.81;7393644;19;20521;-67
2022/08/30 02:07:14;;;;;;;7.18;6.47;;;;;;;15.04;84.10;101518.59;7393575;19;20031;-67
2022/08/30 02:09:45;;;;;;;8.73;6.90;;;;;;;15.01;84.48;101523.09;7394861;19;20022;-67
2022/08/30 02:12:14;;;;;;;7.13;6.43;;;;;;;14.97;84.57;101527.56;7395300;19;20031;-67
2022/08/30 02:14:42;;;;;;;7.40;6.22;;;;;;;14.94;84.84;101527.69;7394740;19;20014;-69
2022/08/30 02:17:13;;;;;;;7.90;6.65;;;;;;;14.92;84.84;101518.91;7394350;19;20380;-67
2022/08/30 02:19:42;;;;;;;8.35;6.97;;;;;;;14.89;84.79;101511.09;7394801;19;20018;-67
2022/08/30 02:22:11;;;;;;;7.40;6.65;;;;;;;14.88;85.16;101514.63;7393651;19;20023;-67
2022/08/30 02:24:40;;;;;;;7.63;6.85;;;;;;;14.86;85.49;101512.03;7393473;19;20423;-67
2022/08/30 02:27:11;;;;;;;7.82;6.43;;;;;;;14.83;85.59;101505.03;7393058;19;20424;-67
2022/08/30 02:29:40;;;;;;;8.10;7.30;;;;;;;14.83;85.32;101515.59;7394160;19;20499;-67
2022/08/30 02:32:08;;;;;;;8.65;7.13;;;;;;;14.80;85.73;101512.22;7394083;19;20046;-67
2022/08/30 02:34:37;;;;;;;8.20;7.43;;;;;;;14.76;85.70;101514.06;7392423;19;20025;-67
2022/08/30 02:37:06;;;;;;;10.00;6.95;;;;;;;14.73;85.81;101519.41;7394294;19;20062;-67
2022/08/30 02:39:34;;;;;;;9.77;7.40;;;;;;;14.70;86.06;101513.34;7392456;19;20022;-67
2022/08/30 02:42:03;;;;;;;8.88;7.60;;;;;;;14.65;85.97;101516.13;7392095;19;20006;-67
2022/08/30 02:44:34;;;;;;;8.43;6.68;;;;;;;14.60;86.44;101513.56;7392669;19;20038;-67
2022/08/30 02:47:02;;;;;;;9.70;7.50;;;;;;;14.58;86.38;101515.34;7392507;19;20025;-67
2022/08/30 02:49:31;;;;;;;8.88;7.32;;;;;;;14.55;86.42;101511.97;7394152;19;20019;-67
2022/08/30 02:51:59;;;;;;;10.13;7.53;;;;;;;14.53;86.65;101516.41;7394060;19;20018;-67
2022/08/30 02:54:28;;;;;;;9.85;7.93;;;;;;;14.50;86.69;101515.56;7392411;19;20485;-67
2022/08/30 02:56:57;;;;;;;10.65;7.82;;;;;;;14.47;86.78;101507.72;7393829;19;20022;-67
2022/08/30 02:59:25;;;;;;;11.07;7.78;;;;;;;14.45;86.76;101506.91;7393886;19;20018;-67
2022/08/30 03:01:56;;;;;;;7.93;6.82;;;;;;;14.43;86.95;101510.47;7393118;19;20377;-67
2022/08/30 03:04:25;;;;;;;10.63;7.40;;;;;;;14.41;86.81;101505.25;7392464;19;20022;-67
2022/08/30 03:06:53;;;;;;;9.43;6.97;;;;;;;14.40;87.18;101502.66;7391663;19;20031;-68
2022/08/30 03:09:22;;;;;;;11.98;7.07;;;;;;;14.38;87.04;101509.72;7393276;19;20036;-67
2022/08/30 03:11:50;;;;;;;8.52;7.63;;;;;;;14.34;87.19;101501.91;7393307;19;20010;-67
2022/08/30 03:14:19;;;;;;;8.25;7.35;;;;;;;14.33;87.19;101504.56;7392114;19;20379;-67
2022/08/30 03:16:47;;;;;;;8.15;7.35;;;;;;;14.28;87.31;101507.34;7393393;19;20031;-67
2022/08/30 03:19:19;;;;;;;8.65;7.22;;;;;;;14.25;87.27;101507.41;7393323;19;20145;-67
2022/08/30 03:21:48;;;;;;;7.50;6.57;;;;;;;14.22;87.39;101511.91;7397826;19;20078;-67
2022/08/30 03:24:16;;;;;;;10.65;7.80;;;;;;;14.18;87.35;101511.97;7397680;19;20022;-67
2022/08/30 03:26:44;;;;;;;7.20;6.43;;;;;;;14.13;87.37;101521.78;7397587;19;20019;-67
2022/08/30 03:29:13;;;;;;;8.10;7.00;;;;;;;14.10;87.49;101523.63;7400282;19;20032;-67
2022/08/30 03:31:41;;;;;;;7.38;6.68;;;;;;;14.06;87.49;101525.47;7399945;19;20018;-67
2022/08/30 03:34:11;;;;;;;6.82;6.22;;;;;;;14.04;87.58;101522.00;7397271;19;20441;-67
2022/08/30 03:36:42;;;;;;;10.23;7.60;;;;;;;14.01;87.73;101522.06;7400017;19;20078;-67
2022/08/30 03:39:12;;;;;;;10.40;7.53;;;;;;;13.99;87.55;101524.75;7400091;19;20014;-69
2022/08/30 03:41:40;;;;;;;8.13;6.50;;;;;;;13.97;87.85;101528.31;7398502;19;20015;-67
2022/08/30 03:44:09;;;;;;;8.57;7.15;;;;;;;13.96;87.70;101522.19;7396522;19;20019;-67
2022/08/30 03:46:37;;;;;;;9.27;7.13;;;;;;;13.94;87.87;101520.47;7398168;19;20024;-67
2022/08/30 03:49:06;;;;;;;7.25;6.55;;;;;;;13.92;88.04;101525.78;7399820;19;20035;-67
2022/08/30 03:51:35;;;;;;;9.68;7.28;;;;;;;13.92;87.83;101524.94;7399161;19;20478;-67
2022/08/30 03:54:06;;;;;;;9.18;7.13;;;;;;;13.93;88.24;101524.03;7398436;19;20078;-67
2022/08/30 03:56:35;;;;;;;10.05;7.57;;;;;;;13.92;88.39;101530.19;7399211;19;20011;-67
2022/08/30 03:59:04;;;;;;;10.63;7.55;;;;;;;13.92;88.33;101532.84;7399457;19;20027;-68
2022/08/30 04:01:32;;;;;;;7.80;6.93;;;;;;;13.91;88.25;101533.75;7399012;19;20018;-67
2022/08/30 04:04:01;;;;;;;8.20;7.40;;;;;;;13.91;88.41;101534.59;7397432;19;20433;-67
2022/08/30 04:06:30;;;;;;;10.25;8.27;;;;;;;13.90;88.55;101538.16;7397672;19;20032;-67
2022/08/30 04:08:58;;;;;;;8.40;7.55;;;;;;;13.89;88.58;101548.72;7396578;19;20019;-69
2022/08/30 04:11:29;;;;;;;8.25;7.45;;;;;;;13.88;88.43;101539.09;7398552;19;20018;-67
2022/08/30 04:13:58;;;;;;;9.02;7.13;;;;;;;13.88;88.72;101552.28;7397322;19;20433;-67
2022/08/30 04:16:27;;;;;;;8.82;7.95;;;;;;;13.86;88.85;101544.38;7395886;19;20014;-67
2022/08/30 04:18:55;;;;;;;10.82;7.82;;;;;;;13.87;88.85;101545.28;7398426;19;20022;-67
2022/08/30 04:21:24;;;;;;;10.15;7.90;;;;;;;13.87;88.93;101550.53;7394931;19;20415;-67
2022/08/30 04:23:52;;;;;;;9.98;7.55;;;;;;;13.86;89.15;101552.28;7397320;19;20421;-67
2022/08/30 04:26:21;;;;;;;8.73;7.82;;;;;;;13.88;89.26;101554.91;7397317;19;20022;-67
2022/08/30 04:28:52;;;;;;;8.70;7.65;;;;;;;13.89;89.29;101546.09;7398177;19;20042;-67
2022/08/30 04:31:21;;;;;;;9.50;8.35;;;;;;;13.90;89.41;101553.09;7397471;19;20479;-67
2022/08/30 04:33:49;;;;;;;11.38;8.32;;;;;;;13.89;89.68;101552.25;7393195;19;20510;-67
2022/08/30 04:36:18;;;;;;;10.07;9.05;;;;;;;13.90;89.57;101553.09;7396559;19;20502;-66
2022/08/30 04:38:47;;;;;;;11.02;9.15;;;;;;;13.89;89.72;101551.34;7397055;19;20015;-68
2022/08/30 04:41:18;;;;;;;12.63;9.73;;;;;;;13.88;89.51;101555.78;7396366;19;20434;-67
2022/08/30 04:43:49;;;;;;;9.85;8.35;;;;;;;13.85;89.68;101551.44;7396304;19;20018;-66
2022/08/30 04:46:20;;;;;;;11.90;9.40;;;;;;;13.90;89.59;101555.75;7397268;19;20018;-66
2022/08/30 04:48:49;;;;;;;12.55;9.57;;;;;;;13.91;89.59;101560.97;7397456;19;20018;-69
2022/08/30 04:51:19;;;;;;;11.80;9.70;;;;;;;13.93;89.61;101558.31;7397712;19;20027;-67
2022/08/30 04:53:48;;;;;;;12.15;9.75;;;;;;;13.94;89.54;101554.75;7395648;19;20011;-67
2022/08/30 04:56:21;;;;;;;11.43;9.25;;;;;;;13.95;89.72;101559.13;7396508;19;20580;-67
2022/08/30 04:58:53;;;;;;;12.20;9.38;;;;;;;13.99;89.62;101566.09;7396386;19;20104;-67
2022/08/30 05:01:26;;;;;;;11.55;9.88;;;;;;;14.01;89.71;101562.53;7395612;19;20525;-67
2022/08/30 05:03:56;;;;;;;14.80;10.70;;;;;;;14.05;89.61;101557.16;7394652;19;20019;-67
2022/08/30 05:06:26;;;;;;;12.55;9.95;;;;;;;14.08;89.87;101562.34;7393980;19;20055;-67
2022/08/30 05:08:55;;;;;;;11.63;9.68;;;;;;;14.10;89.85;101563.19;7395027;19;20372;-67
2022/08/30 05:11:23;;;;;;;12.07;9.65;;;;;;;14.16;89.69;101565.69;7395402;19;20021;-68
2022/08/30 05:13:52;;;;;;;13.02;9.82;;;;;;;14.20;89.54;101569.13;7394759;19;20035;-68
2022/08/30 05:16:21;;;;;;;12.65;10.52;;;;;;;14.23;89.83;101571.69;7394596;19;20424;-68
2022/08/30 05:18:53;;;;;;;12.93;10.05;;;;;;;14.28;89.77;101569.81;7396024;19;20035;-68
2022/08/30 05:21:25;;;;;;;12.80;10.88;;;;;;;14.32;89.96;101582.03;7393359;19;20032;-68
2022/08/30 05:23:55;;;;;;;12.60;10.55;;;;;;;14.36;89.88;101585.47;7392903;19;20508;-67
2022/08/30 05:26:25;;;;;;;12.95;9.98;;;;;;;14.40;89.90;101587.97;7394612;19;20015;-68
2022/08/30 05:28:55;;;;;;;12.73;10.15;;;;;;;14.44;89.87;101591.44;7395698;19;20355;-68
2022/08/30 05:31:26;;;;;;;10.55;9.32;;;;;;;14.49;90.00;101590.44;7395312;19;20020;-67
2022/08/30 05:33:57;;;;;;;12.65;10.52;;;;;;;14.54;89.98;101592.94;7393494;19;20031;-68
2022/08/30 05:36:29;;;;;;;11.50;10.30;;;;;;;14.58;89.80;101597.22;7395004;19;20014;-68
2022/08/30 05:38:59;;;;;;;11.43;9.82;;;;;;;14.63;89.57;101598.00;7394731;19;20393;-67
2022/08/30 05:41:28;;;;;;;10.95;9.05;;;;;;;14.68;89.82;101602.31;7392383;19;20327;-68
2022/08/30 05:43:58;;;;;;;13.52;10.55;;;;;;;14.72;89.55;101604.88;7392373;19;20521;-68
2022/08/30 05:46:30;;;;;;;12.40;10.15;;;;;;;14.77;89.68;101595.03;7394675;19;20022;-68
2022/08/30 05:49:02;;;;;;;12.40;10.52;;;;;;;14.83;89.33;101599.28;7396027;19;20022;-68
2022/08/30 05:51:33;;;;;;;13.68;11.05;;;;;;;14.89;89.28;101598.28;7395303;19;20507;-67
2022/08/30 05:54:02;;;;;;;16.25;12.77;;;;;;;14.95;89.42;101598.09;7392723;19;20116;-68
2022/08/30 05:56:35;;;;;;;16.45;11.93;;;;;;;14.99;89.08;101597.97;7394984;19;20022;-68
2022/08/30 05:59:05;;;;;;;13.65;10.40;;;;;;;15.07;89.04;101605.69;7395302;19;20059;-67
2022/08/30 06:01:36;;;;;;;12.38;10.18;;;;;;;15.14;89.10;101598.50;7395201;19;20025;-68
2022/08/30 06:04:10;;;;;;;13.55;11.20;;;;;;;15.22;88.74;101600.91;7394809;19;20036;-68
2022/08/30 06:06:39;;;;;;;;;;;;;;;15.28;88.60;101600.75;7394093;19;20014;-67
2022/08/30 06:09:12;;;;;;;15.95;13.30;;;;;;;15.34;88.36;101597.91;7392424;19;19914;-68
2022/08/30 06:11:41;;;;;;;13.48;11.15;;;;;;;15.41;88.20;101602.13;7394084;19;20481;-68
2022/08/30 06:14:10;;;;;;;14.48;10.65;;;;;;;15.49;88.08;101607.19;7393557;19;20027;-68
2022/08/30 06:16:42;;;;;;;14.13;11.48;;;;;;;15.55;87.82;101603.50;7394397;19;20054;-68
2022/08/30 06:19:14;;;;;;;15.35;11.68;;;;;;;15.59;88.09;101606.00;7392554;19;20363;-68
2022/08/30 06:21:44;;;;;;;15.88;12.20;;;;;;;15.64;88.08;101608.53;7392243;19;20036;-68
2022/08/30 06:24:13;;;;;;;12.15;10.77;;;;;;;15.70;88.01;101608.34;7391959;19;20389;-68
2022/08/30 06:26:44;;;;;;;12.55;10.98;;;;;;;15.75;87.70;101609.06;7392973;19;20079;-68
2022/08/30 06:29:17;;;;;;;12.18;10.88;;;;;;;15.80;87.57;101616.88;7391290;19;20018;-68
2022/08/30 06:31:46;;;;;;;11.60;10.32;;;;;;;15.85;87.45;101616.78;7393509;19;20035;-68
2022/08/30 06:34:18;;;;;;;13.68;11.25;;;;;;;15.90;87.37;101612.22;7392277;19;20014;-68
2022/08/30 06:36:46;;;;;;;11.32;10.13;;;;;;;15.94;87.62;101613.84;7390831;19;20497;-67
2022/08/30 06:39:15;;;;;;;11.25;10.00;;;;;;;15.98;87.20;101615.50;7392889;19;20031;-68
2022/08/30 06:41:44;;;;;;;13.88;9.90;;;;;;;16.03;86.93;101612.72;7392296;19;20007;-68
2022/08/30 06:44:12;;;;;;;12.35;11.07;;;;;;;16.09;87.05;101620.47;7391426;19;20027;-67
2022/08/30 06:46:41;;;;;;;15.15;13.35;;;;;;;16.15;86.92;101617.63;7392981;19;20023;-68
2022/08/30 06:49:09;;;;;;;13.32;11.75;;;;;;;16.22;86.83;101616.50;7392383;19;20023;-68
2022/08/30 06:51:42;;;;;;;12.35;11.00;;;;;;;16.27;86.59;101611.94;7391243;19;20380;-68
2022/08/30 06:54:12;;;;;;;12.32;9.95;;;;;;;16.33;86.37;101608.22;7392580;19;20022;-68
2022/08/30 06:56:41;;;;;;;14.38;10.07;;;;;;;16.38;86.37;101611.59;7397440;19;20028;-66
2022/08/30 06:59:09;;;;;;;11.48;10.25;;;;;;;16.45;86.12;101607.84;7397680;19;20094;-66
2022/08/30 07:01:38;;;;;;;12.48;10.30;;;;;;;16.50;85.70;101612.97;7400885;19;20018;-67
2022/08/30 07:04:06;;;;;;;13.10;10.68;;;;;;;16.54;85.46;101621.69;7397459;19;20081;-67
2022/08/30 07:06:35;;;;;;;12.13;10.30;;;;;;;16.57;85.46;101617.16;7400299;19;20343;-67
2022/08/30 07:09:07;;;;;;;11.55;10.30;;;;;;;16.62;85.29;101614.38;7400676;19;20022;-67
2022/08/30 07:11:39;;;;;;;10.88;9.75;;;;;;;16.68;85.54;101613.28;7397728;19;20108;-67
2022/08/30 07:14:08;;;;;;;12.15;10.27;;;;;;;16.72;85.42;101620.19;7398360;19;20363;-67
2022/08/30 07:16:37;;;;;;;13.95;11.77;;;;;;;16.77;85.11;101619.16;7396741;19;20031;-67
2022/08/30 07:19:04;;;;;;;10.98;9.85;;;;;;;16.85;85.19;101620.69;7399365;19;20015;-66
2022/08/30 07:21:36;;;;;;;12.05;10.73;;;;;;;16.92;84.90;101624.84;7399279;19;20473;-67
2022/08/30 07:24:09;;;;;;;10.98;9.63;;;;;;;17.02;84.94;101623.66;7399187;19;20022;-67
2022/08/30 07:26:40;;;;;;;11.38;10.05;;;;;;;17.12;84.47;101623.31;7399430;19;20022;-67
2022/08/30 07:29:09;;;;;;;16.25;9.85;;;;;;;17.20;84.57;101624.78;7399668;19;20023;-67
2022/08/30 07:31:38;;;;;;;12.85;10.68;;;;;;;17.30;84.25;101627.09;7399479;19;20419;-67
2022/08/30 07:34:07;;;;;;;10.95;9.45;;;;;;;17.38;83.75;101625.91;7397600;19;20070;-67
2022/08/30 07:36:37;;;;;;;11.13;9.70;;;;;;;17.46;83.26;101628.25;7399314;19;20099;-67
2022/08/30 07:39:16;;;;;;;11.30;9.00;;;;;;;17.52;83.14;101638.66;7399197;19;20026;-67
2022/08/30 07:41:50;;;;;;;11.68;9.52;;;;;;;17.58;82.74;101640.22;7396608;19;20015;-66
2022/08/30 07:44:19;;;;;;;10.00;8.85;;;;;;;17.66;82.58;101634.63;7399090;19;20014;-66
2022/08/30 07:46:48;;;;;;;11.35;9.38;;;;;;;17.75;82.80;101634.28;7398806;19;20509;-67
2022/08/30 07:49:16;;;;;;;9.95;8.75;;;;;;;17.84;82.31;101638.38;7398902;19;20018;-67
2022/08/30 07:51:45;;;;;;;10.13;8.98;;;;;;;17.92;81.81;101647.78;7399226;19;20507;-67
2022/08/30 07:54:17;;;;;;;10.10;8.38;;;;;;;18.01;81.76;101643.94;7397049;19;20011;-67
2022/08/30 07:56:45;;;;;;;9.85;7.93;;;;;;;18.08;81.38;101644.56;7399446;19;20022;-66
2022/08/30 07:59:14;;;;;;;8.35;7.45;;;;;;;18.17;81.09;101638.03;7399023;19;20133;-66
2022/08/30 08:01:42;;;;;;;9.00;7.65;;;;;;;18.23;80.69;101648.41;7397812;19;20011;-67
2022/08/30 08:04:18;;;;;;;8.55;7.65;;;;;;;18.32;80.25;101645.38;7396499;19;20022;-67
2022/08/30 08:06:47;;;;;;;8.75;7.00;;;;;;;18.42;79.88;101648.53;7395871;19;20106;-67
2022/08/30 08:09:18;;;;;;;8.90;6.90;;;;;;;18.52;78.98;101654.34;7395539;19;20027;-67
2022/08/30 08:11:47;;;;;;;8.15;6.35;;;;;;;18.59;78.60;101646.97;7396119;19;20042;-67
2022/08/30 08:14:15;;;;;;;7.32;6.22;;;;;;;18.66;78.33;101645.81;7396902;19;20026;-66
2022/08/30 08:16:45;;;;;;;7.05;6.32;;;;;;;18.72;77.95;101649.06;7395652;19;20018;-67
2022/08/30 08:19:14;;;;;;;8.38;6.80;;;;;;;18.77;77.44;101648.03;7398311;19;20022;-66
2022/08/30 08:21:42;;;;;;;6.28;5.40;;;;;;;18.82;77.21;101648.69;7398149;19;20010;-67
2022/08/30 08:24:11;;;;;;;6.57;5.90;;;;;;;18.89;76.91;101645.72;7396096;19;20018;-67
2022/08/30 08:26:42;;;;;;;5.93;5.40;;;;;;;18.98;76.83;101648.94;7397389;19;20032;-67
2022/08/30 08:29:11;;;;;;;6.35;5.75;;;;;;;19.09;76.15;101652.00;7395416;19;20022;-68
2022/08/30 08:31:40;;;;;;;7.07;6.30;;;;;;;19.20;75.98;101659.50;7398019;19;20418;-67
2022/08/30 08:34:10;;;;;;;6.95;5.57;;;;;;;19.30;74.78;101662.66;7396564;19;20031;-67
2022/08/30 08:36:39;;;;;;;6.43;5.40;;;;;;;19.33;74.75;101658.03;7397585;19;20010;-68
2022/08/30 08:39:09;;;;;;;5.28;4.78;;;;;;;19.36;73.89;101660.56;7395549;19;20014;-68
2022/08/30 08:41:56;;;;;;;5.85;5.20;;;;;;;19.41;72.26;101665.69;7394493;19;20031;-68
2022/08/30 08:44:40;;;;;;;6.57;5.55;;;;;;;19.48;73.33;101675.13;7395602;19;20022;-68
2022/08/30 08:47:14;;;;;;;6.43;5.35;;;;;;;19.56;73.09;101665.94;7398290;19;20473;-67
2022/08/30 08:49:46;;;;;;;5.82;4.72;;;;;;;19.65;73.00;101660.19;7398719;19;20022;-67
2022/08/30 08:55:08;;;;;;;5.97;5.35;;;;;;;19.79;72.41;101670.19;7395365;19;20374;-67
2022/08/30 08:57:40;;;;;;;5.53;4.80;;;;;;;19.80;72.08;101662.16;7395628;19;20018;-67
2022/08/30 09:00:13;;;;;;;5.25;4.75;;;;;;;19.85;71.42;101661.97;7396601;19;20078;-67
2022/08/30 09:02:45;;;;;;;5.47;4.82;;;;;;;19.91;71.18;101666.16;7396792;19;20070;-67
2022/08/30 09:05:17;;;;;;;5.43;4.93;;;;;;;19.93;71.25;101666.94;7394199;19;20011;-69
2022/08/30 09:07:50;;;;;;;5.20;4.70;;;;;;;19.94;71.37;101664.22;7395946;19;20393;-69
2022/08/30 09:10:19;;;;;;;;;;;;;;;19.95;70.12;101668.59;7395842;19;20038;-68
2022/08/30 09:12:50;;;;;;;6.95;5.55;;;;;;;19.97;70.70;101665.88;7396477;19;19919;-70
2022/08/30 09:15:21;;;;;;;5.55;5.03;;;;;;;19.96;70.54;101665.00;7396913;19;20019;-68
2022/08/30 09:17:56;;;;;;;15.90;10.00;;;;;;;19.99;70.65;101661.31;7394017;19;20342;-68
2022/08/30 09:20:32;;;;;;;4.43;4.03;;;;;;;20.06;70.02;101667.25;7394951;19;20022;-69
2022/08/30 09:23:13;;;;;;;6.03;4.13;;;;;;;20.14;69.54;101673.06;7394666;19;20022;-70
2022/08/30 09:25:53;;;;;;;3.83;3.45;;;;;;;20.25;69.28;101661.91;7395956;19;20367;-68
2022/08/30 09:28:27;;;;;;;3.47;3.10;;;;;;;20.34;68.30;101654.31;7395190;19;20022;-68
2022/08/30 09:31:04;;;;;;;3.85;3.10;;;;;;;20.48;67.41;101660.78;7394421;19;20046;-69
2022/08/30 09:33:33;;;;;;;5.97;3.97;;;;;;;20.56;67.28;101652.41;7396052;19;20018;-68
2022/08/30 09:36:20;;;;;;;6.45;3.70;;;;;;;20.62;66.66;101650.28;7394222;19;20019;-69
2022/08/30 09:39:00;;;;;;;3.65;3.30;;;;;;;20.71;66.72;101648.16;7395343;19;20014;-68
2022/08/30 09:41:40;;;;;;;2.78;2.40;;;;;;;20.76;66.10;101648.78;7396125;19;20010;-68
2022/08/30 09:44:16;;;;;;;3.35;2.50;;;;;;;20.76;65.77;101649.66;7394670;19;20014;-68
2022/08/30 09:46:47;;;;;;;4.90;2.45;;;;;;;20.72;65.43;101653.41;7395855;19;20039;-66
2022/08/30 09:49:35;;;;;;;2.60;2.40;;;;;;;20.63;64.36;101646.69;7394748;19;20026;-67
2022/08/30 09:52:18;;;;;;;2.92;2.15;;;;;;;20.59;64.93;101655.78;7395847;19;20014;-70
2022/08/30 09:55:03;;;;;;;4.35;2.60;;;;;;;20.60;64.69;101648.63;7394563;19;20035;-65
2022/08/30 09:57:39;;;;;;;3.40;2.28;;;;;;;20.62;64.91;101660.94;7395250;19;20031;-67
2022/08/30 10:00:20;;;;;;;2.40;2.17;;;;;;;20.61;65.13;101661.91;7394828;19;20078;-67
2022/08/30 10:03:00;;;;;;;2.50;2.30;;;;;;;20.58;64.92;101654.06;7395619;19;20022;-69
2022/08/30 10:05:34;;;;;;;4.32;2.20;;;;;;;20.55;65.32;101651.56;7396613;19;20022;-67
2022/08/30 10:08:13;;;;;;;3.65;2.70;;;;;;;20.51;64.90;101649.97;7395277;19;20359;-67
2022/08/30 10:10:51;;;;;;;2.33;2.13;;;;;;;20.49;64.67;101657.19;7395479;19;20018;-67
2022/08/30 10:13:43;;;;;;;2.83;2.10;;;;;;;20.51;64.97;101640.16;7394625;19;20019;-66
2022/08/30 10:16:23;;;;;;;2.22;2.03;;;;;;;20.58;64.92;101639.88;7393557;19;20027;-65
2022/08/30 10:19:00;;;;;;;2.30;2.00;;;;;;;20.68;64.71;101639.31;7395119;19;20019;-66
2022/08/30 10:21:35;;;;;;;1.95;1.80;;;;;;;20.79;63.69;101632.63;7395823;19;20085;-65
2022/08/30 10:24:09;;;;;;;3.25;2.00;;;;;;;20.85;63.68;101629.63;7393326;19;20034;-66
2022/08/30 10:26:43;;;;;;;2.08;1.85;;;;;;;20.89;62.98;101628.56;7392563;19;20031;-65
2022/08/30 10:29:17;;;;;;;3.85;2.10;;;;;;;20.84;63.48;101630.59;7392703;19;20015;-69
2022/08/30 10:31:54;;;;;;;2.63;2.00;;;;;;;20.82;63.17;101627.13;7392057;19;20556;-67
2022/08/30 10:34:27;;;;;;;2.42;1.90;;;;;;;20.82;62.80;101627.13;7392514;19;20035;-67
2022/08/30 10:37:01;;;;;;;2.60;2.03;;;;;;;20.80;62.96;101629.88;7393565;19;20485;-67
2022/08/30 10:39:35;;;;;;;3.03;1.63;;;;;;;20.81;62.58;101626.28;7394549;19;20028;-66
2022/08/30 10:42:10;;;;;;;2.00;1.58;;;;;;;20.85;62.17;101624.28;7394239;19;20018;-69
2022/08/30 10:44:43;;;;;;;2.72;1.65;;;;;;;20.86;61.57;101626.03;7393124;19;20023;-67
2022/08/30 10:47:25;;;;;;;2.10;1.57;;;;;;;20.88;61.40;101618.81;7392435;19;20359;-67
2022/08/30 10:50:02;;;;;;;2.28;1.55;;;;;;;20.94;59.50;101620.28;7392083;19;20523;-66
2022/08/30 10:52:36;;;;;;;2.17;1.10;;;;;;;20.98;60.27;101609.41;7391842;19;20023;-66
2022/08/30 10:55:10;;;;;;;1.77;1.52;;;;;;;21.04;59.89;101610.91;7391812;19;20377;-67
2022/08/30 10:57:38;;;;;;;;;;;;;;;21.07;59.36;101608.06;7393174;19;20042;-68
2022/08/30 11:00:10;;;;;;;3.30;1.17;;;;;;;21.13;60.01;101609.56;7393632;19;19978;-67
2022/08/30 11:03:35;;;;;;;2.25;1.25;;;;;;;21.22;59.69;101609.06;7393766;19;20018;-67
2022/08/30 11:06:27;;;;;;;1.45;1.20;;;;;;;21.28;57.58;101603.41;7391545;19;20018;-66
2022/08/30 11:09:11;;;;;;;2.30;1.20;;;;;;;21.34;58.93;101601.34;7392028;19;20077;-67
2022/08/30 11:11:55;;;;;;;1.80;1.40;;;;;;;21.37;56.92;101603.84;7393189;19;20031;-66
2022/08/30 11:14:24;;;;;;;1.38;1.27;;;;;;;21.42;58.28;101604.44;7390201;19;20039;-67
2022/08/30 11:16:56;;;;;;;3.15;1.65;;;;;;;21.51;58.01;101598.63;7389883;19;20040;-68
2022/08/30 11:19:37;;;;;;;1.80;0.80;;;;;;;21.63;56.70;101598.00;7391943;19;20014;-67
2022/08/30 11:22:15;;;;;;;3.30;1.40;;;;;;;21.80;55.53;101597.03;7390942;19;20011;-66
2022/08/30 11:25:10;;;;;;;1.30;1.20;;;;;;;21.93;55.86;101602.56;7389646;19;20011;-66
2022/08/30 11:27:48;;;;;;;1.60;1.20;;;;;;;22.04;55.22;101596.63;7391675;19;20032;-68
2022/08/30 11:30:50;;;;;;;2.58;1.45;;;;;;;22.16;56.07;101594.19;7389414;19;20149;-67
2022/08/30 11:33:42;;;;;;;5.20;1.70;;;;;;;22.31;56.68;101597.81;7391359;19;20031;-70
2022/08/30 11:36:37;;;;;;;2.65;1.40;;;;;;;22.42;56.84;101590.06;7390092;19;20444;-67
2022/08/30 11:39:11;;;;;;;2.88;1.38;;;;;;;22.58;57.39;101588.19;7390854;19;20014;-66
2022/08/30 11:41:42;;;;;;;2.00;1.52;;;;;;;22.70;56.42;101583.06;7391541;19;20014;-66
2022/08/30 11:44:27;;;;;;;2.38;1.30;;;;;;;22.73;55.64;101582.88;7396811;19;20027;-67
2022/08/30 11:46:57;;;;;;;2.90;1.38;;;;;;;22.68;55.67;101588.50;7400069;19;20035;-67